KRST/RST METAR and TAF weather

Enter ICAO airport designator
Station Type Date Time Source
KRST METAR 2020/01/18 15:54 UTC NOAA

KRST 181554Z 28024G32KT 1/2SM R31/2200V3500FT -SN FZFG BKN008 OVC012 M12/M14 A2975 RMK AO2 PK WND 29034/1514 UPB1455E03SNE1455B03 SLP100 P0000 T11171139


Station Type Date Time Source
KRST Decoded METAR 2020/01/18 15:54 UTC NOAA

ROCHESTER INTERNATIONAL AIRPORT , MN, United States (KRST) 43-54N 092-30W 403M
Jan 18, 2020 - 10:54 AM EST / 2020.01.18 1554 UTC
Wind: from the W (280 degrees) at 28 MPH (24 KT) gusting to 37 MPH (32 KT) (direction variable):0
Visibility: 1/2 mile(s):0
Sky conditions: overcast
Weather: light snow; freezing fog
Precipitation last hour: A trace
Temperature: 10.9 F (-11.7 C)
Windchill: -11 F (-24 C):2
Dew Point: 7.0 F (-13.9 C)
Relative Humidity: 83%
Pressure (altimeter): 29.75 in. Hg (1007 hPa)
ob: KRST 181554Z 28024G32KT 1/2SM R31/2200V3500FT -SN FZFG BKN008 OVC012 M12/M14 A2975 RMK AO2 PK WND 29034/1514 UPB1455E03SNE1455B03 SLP100 P0000 T11171139
cycle: 16

Station Type Date Time Source
KRST TAF 2020/01/18 16:33 UTC NOAA

TAF
AMD KRST 181531Z 1816/1912 29025G35KT 3/4SM -SN BLSN OVC012
FM181700 30026G38KT 1SM BLSN SCT014 OVC022
TEMPO 1818/1822 3/4SM -SN BLSN BKN014
FM190100 30022G30KT 6SM BLSN BKN020
FM190600 30018G28KT P6SM BKN025

Example: see airport list